Terminal Aerodrome Forecast
Issued by NWS Lake Charles, LA

Home | Current Version | Previous Version | Text Only | Print | Product List | Glossary On
Versions: 1 2 3 4 5 6 7 8 9 10 11 12 13 14 15 16 17 18 19 20 21 22
000
FTUS44 KLCH 180539
TAFBPT
TAF
KBPT 180539Z 1806/1906 35007KT P6SM -SHRA OVC006
      TEMPO 1806/1810 5SM -RA BR SCT006 OVC013
     FM181000 11005KT 3SM BR VCSH OVC004
      TEMPO 1810/1814 1SM -RA BR FEW004 OVC009
     FM181500 12007KT 5SM -SHRA BR OVC009
      TEMPO 1815/1819 FEW009 BKN016
     FM181900 13010KT P6SM -SHRA BKN016 OVC024=

USA.gov is the U.S. government's official web portal to all federal, state and local government web resources and services.